Nambour Dpi, Queensland

7:05 AM EST on August 28, 2014 (GMT +1000)
Montville | Change Station
CLOSE
Current Station
Personal Weather Station
Location: Montville, QUEENSLAND
Elevation: 597 ft
Nearby Weather Stations

Elev 597 ft 26.70 °S, 152.91 °E | Updated 5 minutes ago

Overcast
Overcast
56.5 °F
Feels Like 56.5 °F
N
0.0
Wind Variable Wind from North
Gusts 0.0 mph

Today
High -- | Low -- °F
--% Chance of Precip.
Yesterday
High -- | Low -- °F
Precip. -- in
6:05 AM 5:33 PM
Waxing Crescent, 5% visible
Pressure 29.95 in
Visibility 6.2 miles
Clouds Few 2000 ft
Scattered Clouds 3000 ft
Mostly Cloudy 7500 ft
Dew Point 51 °F
Humidity 82%
Rainfall 0.00 in
Snow Depth Not available.
UV 0 out of 12
Pollen Not available.
Air Quality Not available.
Flu Activity Not available.
METAR YBBN 272100Z 22015KT 9999 -SHRA FEW020 SCT030 BKN075 15/12 Q1014 INTER 2100/2200 3000 SHRA BKN010 FM2100 MOD TURB BLW 5000FT

More Conditions Fewer Conditions

Pressure 29.95 in
Visibility 6.2 miles
Clouds Few 2000 ft
Scattered Clouds 3000 ft
Mostly Cloudy 7500 ft
Dew Point 51 °F
Humidity 82%
Rainfall 0.00 in
Snow Depth Not available.
UV 0 out of 12
Pollen Not available.
Air Quality Not available.
Flu Activity Not available.
METAR YBBN 272100Z 22015KT 9999 -SHRA FEW020 SCT030 BKN075 15/12 Q1014 INTER 2100/2200 3000 SHRA BKN010 FM2100 MOD TURB BLW 5000FT

More Conditions Fewer Conditions

10-Day Weather Forecast

Almanac

Astronomy

Aug. 28, 2014 Rise Set
Actual Time 6:05 AM EST 5:33 PM EST
Civil Twilight 5:42 AM EST 5:57 PM EST
Nautical Twilight 5:15 AM EST 6:24 PM EST
Astronomical Twilight 4:48 AM EST 6:51 PM EST
Moon 7:17 AM EST (8/28) 7:48 PM EST (8/28)
Length of Visible Light 12h 14m
Length of Day
11h 27m
Tomorrow will be 1m 28s longer.
Waxing Crescent, 5% of the Moon is Illuminated
Aug 27
Waxing Crescent
Sep 2
First Quarter
Sep 8
Full
Sep 15
Last Quarter
Sep 24
New

Yesterday's Extremes

Country Highs Country Lows

Community

WunderPhotos

Upload Photos

1,747,785 photos uploaded!

Nearby

Snow Depth

Not available.

Earthquake Activity

City Distance Mag. Time & Date
No recent earthquake activity has been reported nearby.
Minimum magnitude displayed is 2.5.

Coastal Water Temperatures

Place Temperature
No Stations Reporting

Nearby Weather Stations